Time;durP1;ratioP1;P1;durP2;ratioP2;P2;SDS_P1;SDS_P2;PMS_P1;PMS_P2;Temp;Humidity;BMP_temperature;BMP_pressure;BME280_temperature;BME280_humidity;BME280_pressure;Samples;Min_cycle;Max_cycle;Signal;HPM_P1;HPM_P2
2023/07/23 00:00:37;;;;;;;13.38;8.98;;;;;;;;;;5077270;28;20491;-79
2023/07/23 00:03:03;;;;;;;16.13;9.10;;;;;;;;;;5095191;28;20048;-79
2023/07/23 00:05:29;;;;;;;16.52;9.25;;;;;;;;;;5076459;28;20043;-78
2023/07/23 00:07:56;;;;;;;16.02;9.45;;;;;;;;;;5076674;28;20142;-79
2023/07/23 00:10:22;;;;;;;13.45;9.10;;;;;;;;;;5094206;28;20062;-78
2023/07/23 00:12:48;;;;;;;15.05;9.05;;;;;;;;;;5094370;28;20032;-78
2023/07/23 00:15:14;;;;;;;14.88;9.20;;;;;;;;;;5094631;28;20040;-78
2023/07/23 00:17:41;;;;;;;14.70;9.70;;;;;;;;;;5076280;28;20044;-78
2023/07/23 00:20:08;;;;;;;16.10;9.68;;;;;;;;;;5093506;28;20044;-79
2023/07/23 00:22:34;;;;;;;14.77;8.60;;;;;;;;;;5093837;28;20044;-77
2023/07/23 00:25:00;;;;;;;15.90;8.77;;;;;;;;;;5092953;28;20081;-78
2023/07/23 00:27:26;;;;;;;14.68;9.32;;;;;;;;;;5094176;28;20370;-78
2023/07/23 00:29:53;;;;;;;13.95;8.63;;;;;;;;;;5094109;28;20055;-78
2023/07/23 00:32:19;;;;;;;13.05;8.82;;;;;;;;;;5093616;28;20053;-78
2023/07/23 00:34:45;;;;;;;16.58;8.82;;;;;;;;;;5093605;28;20044;-78
2023/07/23 00:37:12;;;;;;;14.40;8.95;;;;;;;;;;5101507;28;20047;-77
2023/07/23 00:39:39;;;;;;;14.02;8.52;;;;;;;;;;5114425;28;20042;-78
2023/07/23 00:42:05;;;;;;;13.02;8.40;;;;;;;;;;5081924;28;20330;-78
2023/07/23 00:44:31;;;;;;;14.15;9.60;;;;;;;;;;5093770;28;20432;-78
2023/07/23 00:46:59;;;;;;;15.45;9.15;;;;;;;;;;5075787;28;20479;-78
2023/07/23 00:49:25;;;;;;;16.13;9.20;;;;;;;;;;5093527;28;20116;-78
2023/07/23 00:51:53;;;;;;;15.75;9.55;;;;;;;;;;5094309;28;20040;-78
2023/07/23 00:54:19;;;;;;;16.17;9.32;;;;;;;;;;5090308;28;20035;-79
2023/07/23 00:56:46;;;;;;;17.10;10.07;;;;;;;;;;5114131;28;20083;-79
2023/07/23 00:59:12;;;;;;;14.75;9.82;;;;;;;;;;5094795;28;20544;-79
2023/07/23 01:01:39;;;;;;;16.23;9.90;;;;;;;;;;5095122;28;20043;-78
2023/07/23 01:04:05;;;;;;;15.27;9.75;;;;;;;;;;5113861;28;20395;-78
2023/07/23 01:06:32;;;;;;;15.10;9.90;;;;;;;;;;5088548;28;20429;-78
2023/07/23 01:08:59;;;;;;;16.42;10.63;;;;;;;;;;5092862;28;20376;-79
2023/07/23 01:11:25;;;;;;;15.90;9.85;;;;;;;;;;5093606;28;20047;-79
2023/07/23 01:13:52;;;;;;;18.23;10.48;;;;;;;;;;5092951;28;20044;-79
2023/07/23 01:16:19;;;;;;;14.85;9.70;;;;;;;;;;5093451;28;20036;-79
2023/07/23 01:18:45;;;;;;;18.33;10.05;;;;;;;;;;5091238;28;20040;-78
2023/07/23 01:21:14;;;;;;;17.00;9.82;;;;;;;;;;5091910;28;20472;-78
2023/07/23 01:23:40;;;;;;;15.48;9.68;;;;;;;;;;5074515;28;20448;-78
2023/07/23 01:26:07;;;;;;;16.52;9.82;;;;;;;;;;5092986;28;20043;-78
2023/07/23 01:28:34;;;;;;;15.95;10.20;;;;;;;;;;5092526;28;20044;-78
2023/07/23 01:31:00;;;;;;;16.80;10.30;;;;;;;;;;5093219;28;20069;-78
2023/07/23 01:33:26;;;;;;;16.67;10.20;;;;;;;;;;5090718;28;20352;-78
2023/07/23 01:35:54;;;;;;;16.92;10.52;;;;;;;;;;5072194;28;20400;-78
2023/07/23 01:38:21;;;;;;;16.73;10.65;;;;;;;;;;5110181;28;20044;-78
2023/07/23 01:40:48;;;;;;;16.25;10.23;;;;;;;;;;5109790;28;20040;-78
2023/07/23 01:43:14;;;;;;;17.60;10.25;;;;;;;;;;5092797;28;20472;-78
2023/07/23 01:45:44;;;;;;;15.30;9.73;;;;;;;;;;5092661;28;20108;-78
2023/07/23 01:48:10;;;;;;;14.70;9.82;;;;;;;;;;5092633;28;20044;-78
2023/07/23 01:50:36;;;;;;;12.68;8.93;;;;;;;;;;5074930;28;20369;-78
2023/07/23 01:53:02;;;;;;;13.75;9.00;;;;;;;;;;5096924;28;20488;-78
2023/07/23 01:55:29;;;;;;;15.38;8.93;;;;;;;;;;5094552;28;20054;-79
2023/07/23 01:57:55;;;;;;;13.80;8.93;;;;;;;;;;5112936;28;20100;-77
2023/07/23 02:00:21;;;;;;;13.90;8.48;;;;;;;;;;5093515;28;20123;-79
2023/07/23 02:02:47;;;;;;;12.38;8.50;;;;;;;;;;5092356;28;20450;-79
2023/07/23 02:05:13;;;;;;;12.70;8.70;;;;;;;;;;5073740;28;20051;-78
2023/07/23 02:07:39;;;;;;;12.88;8.82;;;;;;;;;;5092695;28;20040;-78
2023/07/23 02:10:06;;;;;;;14.13;8.60;;;;;;;;;;5092191;28;20440;-78
2023/07/23 02:12:33;;;;;;;13.32;8.98;;;;;;;;;;5091932;28;20400;-77
2023/07/23 02:14:59;;;;;;;14.35;8.27;;;;;;;;;;5074010;28;20388;-79
2023/07/23 02:17:26;;;;;;;14.68;7.85;;;;;;;;;;5092147;28;20059;-77
2023/07/23 02:19:52;;;;;;;13.10;8.95;;;;;;;;;;5091817;28;20523;-78
2023/07/23 02:22:18;;;;;;;15.45;8.65;;;;;;;;;;5074131;28;20048;-78
2023/07/23 02:24:44;;;;;;;12.93;8.25;;;;;;;;;;5091780;28;20047;-78
2023/07/23 02:27:11;;;;;;;14.02;8.23;;;;;;;;;;5092355;28;20036;-78
2023/07/23 02:29:37;;;;;;;13.63;8.45;;;;;;;;;;5091975;28;20119;-78
2023/07/23 02:32:03;;;;;;;16.05;8.07;;;;;;;;;;5074217;28;20055;-78
2023/07/23 02:34:29;;;;;;;14.93;8.57;;;;;;;;;;5091723;28;20057;-78
2023/07/23 02:36:56;;;;;;;13.18;8.48;;;;;;;;;;5091750;28;20404;-77
2023/07/23 02:39:22;;;;;;;13.90;8.85;;;;;;;;;;5092027;28;20040;-79
2023/07/23 02:41:48;;;;;;;13.65;8.48;;;;;;;;;;5092409;28;20052;-78
2023/07/23 02:44:14;;;;;;;11.45;8.20;;;;;;;;;;5091806;28;20040;-78
2023/07/23 02:46:40;;;;;;;12.23;7.53;;;;;;;;;;5092204;28;20047;-78
2023/07/23 02:49:06;;;;;;;11.95;8.45;;;;;;;;;;5091380;28;20051;-77
2023/07/23 02:51:32;;;;;;;12.95;8.32;;;;;;;;;;5102873;28;20040;-75
2023/07/23 02:53:59;;;;;;;13.93;8.43;;;;;;;;;;5080129;28;20500;-77
2023/07/23 02:56:25;;;;;;;15.57;8.80;;;;;;;;;;5096346;28;20040;-77
2023/07/23 02:58:51;;;;;;;11.50;8.20;;;;;;;;;;5095905;28;20109;-77
2023/07/23 03:01:17;;;;;;;12.50;7.68;;;;;;;;;;5094734;28;20434;-77
2023/07/23 03:03:47;;;;;;;13.40;8.10;;;;;;;;;;5094637;28;20079;-77
2023/07/23 03:06:13;;;;;;;13.23;7.65;;;;;;;;;;5096136;28;20086;-76
2023/07/23 03:08:39;;;;;;;10.27;7.47;;;;;;;;;;5095585;28;20181;-78
2023/07/23 03:11:06;;;;;;;12.13;7.95;;;;;;;;;;5095887;28;20040;-77
2023/07/23 03:13:32;;;;;;;12.30;7.85;;;;;;;;;;5095477;28;20115;-77
2023/07/23 03:15:58;;;;;;;13.40;7.93;;;;;;;;;;5076121;28;20036;-77
2023/07/23 03:18:25;;;;;;;12.95;7.43;;;;;;;;;;5095411;28;20122;-77
2023/07/23 03:20:52;;;;;;;11.50;7.90;;;;;;;;;;5095422;28;20048;-77
2023/07/23 03:23:18;;;;;;;11.57;7.72;;;;;;;;;;5095328;28;20085;-78
2023/07/23 03:25:44;;;;;;;11.93;8.32;;;;;;;;;;5094369;28;20044;-79
2023/07/23 03:28:10;;;;;;;11.57;7.82;;;;;;;;;;5091910;28;20473;-77
2023/07/23 03:30:36;;;;;;;12.88;8.30;;;;;;;;;;5095664;28;20048;-78
2023/07/23 03:33:02;;;;;;;18.52;8.18;;;;;;;;;;5076960;28;20040;-78
2023/07/23 03:35:28;;;;;;;14.63;8.02;;;;;;;;;;5076537;28;20381;-78
2023/07/23 03:37:54;;;;;;;12.00;8.05;;;;;;;;;;5114942;28;20123;-78
2023/07/23 03:40:20;;;;;;;11.80;8.27;;;;;;;;;;5109750;28;20039;-77
2023/07/23 03:42:46;;;;;;;12.90;7.95;;;;;;;;;;5095053;28;20039;-77
2023/07/23 03:45:13;;;;;;;13.25;8.50;;;;;;;;;;5094568;28;20523;-78
2023/07/23 03:47:39;;;;;;;13.10;8.27;;;;;;;;;;5072154;28;20430;-76
2023/07/23 03:50:05;;;;;;;12.10;8.38;;;;;;;;;;5056690;28;20049;-77
2023/07/23 03:52:31;;;;;;;11.95;9.13;;;;;;;;;;5086473;28;20047;-77
2023/07/23 03:54:57;;;;;;;14.10;9.10;;;;;;;;;;5056596;28;20465;-78
2023/07/23 03:57:23;;;;;;;16.00;8.73;;;;;;;;;;5074517;28;20055;-78
2023/07/23 03:59:50;;;;;;;14.00;9.68;;;;;;;;;;5055144;28;20055;-78
2023/07/23 04:02:16;;;;;;;13.13;8.73;;;;;;;;;;5074529;28;20508;-78
2023/07/23 04:04:43;;;;;;;13.30;8.75;;;;;;;;;;5074066;28;20131;-78
2023/07/23 04:07:09;;;;;;;16.02;9.40;;;;;;;;;;5065361;28;20040;-78
2023/07/23 04:09:36;;;;;;;15.50;9.35;;;;;;;;;;5093841;28;20059;-78
2023/07/23 04:12:02;;;;;;;12.63;9.23;;;;;;;;;;5074462;28;20040;-78
2023/07/23 04:14:28;;;;;;;13.90;9.20;;;;;;;;;;5093256;28;20044;-78
2023/07/23 04:16:55;;;;;;;15.52;9.85;;;;;;;;;;5094143;28;20127;-78
2023/07/23 04:19:21;;;;;;;13.23;9.23;;;;;;;;;;5093966;28;20112;-79
2023/07/23 04:21:47;;;;;;;11.95;8.93;;;;;;;;;;5094586;28;20048;-78
2023/07/23 04:24:14;;;;;;;14.45;9.25;;;;;;;;;;5093352;28;20044;-79
2023/07/23 04:26:40;;;;;;;14.18;9.27;;;;;;;;;;5093612;28;20039;-78
2023/07/23 04:29:08;;;;;;;16.25;8.88;;;;;;;;;;5094016;28;20051;-78
2023/07/23 04:31:34;;;;;;;14.57;9.15;;;;;;;;;;5093908;28;20048;-79
2023/07/23 04:34:00;;;;;;;14.60;8.75;;;;;;;;;;5093341;28;20134;-78
2023/07/23 04:36:28;;;;;;;13.13;8.70;;;;;;;;;;5075543;28;20048;-77
2023/07/23 04:38:54;;;;;;;15.57;9.07;;;;;;;;;;5093376;28;20082;-78
2023/07/23 04:41:20;;;;;;;14.23;9.23;;;;;;;;;;5094074;28;20048;-78
2023/07/23 04:43:46;;;;;;;15.15;9.13;;;;;;;;;;5093409;28;20035;-78
2023/07/23 04:46:13;;;;;;;15.88;9.85;;;;;;;;;;5093143;28;20094;-78
2023/07/23 04:48:39;;;;;;;15.20;9.00;;;;;;;;;;5091241;28;20052;-78
2023/07/23 04:51:06;;;;;;;14.50;8.98;;;;;;;;;;5093247;28;20441;-78
2023/07/23 04:53:33;;;;;;;13.95;9.35;;;;;;;;;;5092921;28;20150;-77
2023/07/23 04:56:00;;;;;;;12.88;9.07;;;;;;;;;;5091961;28;20456;-78
2023/07/23 04:58:26;;;;;;;11.15;8.77;;;;;;;;;;5090954;28;20048;-78
2023/07/23 05:00:52;;;;;;;14.18;8.65;;;;;;;;;;5092145;28;20039;-78
2023/07/23 05:03:19;;;;;;;15.05;8.82;;;;;;;;;;5092965;28;20415;-78
2023/07/23 05:05:49;;;;;;;13.25;9.00;;;;;;;;;;5074893;28;20128;-78
2023/07/23 05:08:16;;;;;;;14.98;8.88;;;;;;;;;;5093447;28;20044;-78
2023/07/23 05:10:42;;;;;;;12.85;8.45;;;;;;;;;;5092184;28;20341;-79
2023/07/23 05:13:08;;;;;;;14.35;9.65;;;;;;;;;;5074630;28;20052;-78
2023/07/23 05:15:34;;;;;;;13.90;8.98;;;;;;;;;;5093046;28;20392;-78
2023/07/23 05:18:00;;;;;;;14.95;9.75;;;;;;;;;;5092998;28;20177;-78
2023/07/23 05:20:26;;;;;;;12.93;9.05;;;;;;;;;;5073010;28;20051;-78
2023/07/23 05:22:52;;;;;;;14.88;9.50;;;;;;;;;;5090860;28;20044;-78
2023/07/23 05:25:19;;;;;;;14.50;9.88;;;;;;;;;;5074492;28;20040;-78
2023/07/23 05:27:45;;;;;;;14.88;10.00;;;;;;;;;;5093108;28;20040;-78
2023/07/23 05:30:11;;;;;;;18.30;9.75;;;;;;;;;;5080690;28;20396;-78
2023/07/23 05:32:37;;;;;;;15.00;10.30;;;;;;;;;;5092867;28;20040;-78
2023/07/23 05:35:04;;;;;;;16.08;10.25;;;;;;;;;;5092051;28;20043;-78
2023/07/23 05:37:30;;;;;;;13.65;9.95;;;;;;;;;;5097512;28;20036;-78
2023/07/23 05:39:56;;;;;;;16.08;10.38;;;;;;;;;;5113397;28;20044;-78
2023/07/23 05:42:23;;;;;;;18.30;10.00;;;;;;;;;;5101575;28;20036;-78
2023/07/23 05:44:50;;;;;;;16.58;10.30;;;;;;;;;;5092413;28;20497;-78
2023/07/23 05:47:16;;;;;;;14.63;10.82;;;;;;;;;;5074307;28;20194;-79
2023/07/23 05:49:42;;;;;;;14.45;10.45;;;;;;;;;;5058019;28;20079;-79
2023/07/23 05:52:08;;;;;;;15.73;10.48;;;;;;;;;;5092617;28;20047;-79
2023/07/23 05:54:34;;;;;;;15.38;10.75;;;;;;;;;;5103615;28;20044;-78
2023/07/23 05:57:01;;;;;;;16.58;10.50;;;;;;;;;;5109698;28;20555;-79
2023/07/23 05:59:27;;;;;;;14.10;9.73;;;;;;;;;;5079020;28;20500;-78
2023/07/23 06:01:53;;;;;;;15.23;10.77;;;;;;;;;;5091969;28;20044;-76
2023/07/23 06:04:20;;;;;;;16.73;10.45;;;;;;;;;;5074136;28;20483;-74
2023/07/23 06:06:46;;;;;;;16.42;10.55;;;;;;;;;;5093979;28;20481;-73
2023/07/23 06:09:13;;;;;;;20.00;10.55;;;;;;;;;;5096569;28;20569;-75
2023/07/23 06:11:39;;;;;;;14.68;9.65;;;;;;;;;;5098185;28;20097;-72
2023/07/23 06:14:06;;;;;;;15.23;10.43;;;;;;;;;;5096260;28;20052;-74
2023/07/23 06:16:33;;;;;;;15.50;10.50;;;;;;;;;;5092902;28;20075;-74
2023/07/23 06:18:59;;;;;;;14.15;10.40;;;;;;;;;;5073847;28;20492;-74
2023/07/23 06:21:25;;;;;;;15.60;10.52;;;;;;;;;;5092031;28;20052;-74
2023/07/23 06:23:54;;;;;;;15.40;9.88;;;;;;;;;;5095413;28;20119;-74
2023/07/23 06:26:21;;;;;;;15.73;10.50;;;;;;;;;;5096551;28;20063;-75
2023/07/23 06:28:47;;;;;;;15.18;9.45;;;;;;;;;;5095979;28;20056;-74
2023/07/23 06:31:14;;;;;;;13.77;9.23;;;;;;;;;;5103854;28;20039;-74
2023/07/23 06:33:40;;;;;;;14.10;9.98;;;;;;;;;;5116802;28;20345;-74
2023/07/23 06:36:06;;;;;;;14.50;10.02;;;;;;;;;;5102058;28;20040;-74
2023/07/23 06:38:32;;;;;;;12.35;9.52;;;;;;;;;;5095998;28;20055;-74
2023/07/23 06:40:58;;;;;;;13.80;9.02;;;;;;;;;;5096526;28;20403;-74
2023/07/23 06:43:24;;;;;;;13.07;9.68;;;;;;;;;;5077476;28;20048;-75
2023/07/23 06:45:51;;;;;;;14.70;9.70;;;;;;;;;;5096080;28;20079;-75
2023/07/23 06:48:19;;;;;;;15.00;10.10;;;;;;;;;;5074281;28;20119;-76
2023/07/23 06:50:46;;;;;;;14.55;10.30;;;;;;;;;;5075690;28;20091;-75
2023/07/23 06:53:12;;;;;;;14.43;10.27;;;;;;;;;;5076005;28;20048;-75
2023/07/23 06:55:57;;;;;;;14.68;10.02;;;;;;;;;;5057827;28;20080;-75
2023/07/23 06:58:23;;;;;;;15.43;10.27;;;;;;;;;;5076550;28;20044;-75
2023/07/23 07:00:49;;;;;;;13.38;9.98;;;;;;;;;;5077675;28;20105;-75
2023/07/23 07:03:15;;;;;;;15.30;9.65;;;;;;;;;;5095569;28;20099;-75
2023/07/23 07:05:41;;;;;;;14.85;10.23;;;;;;;;;;5094975;28;20044;-75
2023/07/23 07:08:08;;;;;;;13.98;10.35;;;;;;;;;;5111716;28;20049;-75
2023/07/23 07:10:34;;;;;;;18.23;10.40;;;;;;;;;;5113918;28;20046;-75
2023/07/23 07:13:00;;;;;;;16.13;10.38;;;;;;;;;;5077026;28;20448;-75
2023/07/23 07:15:26;;;;;;;17.58;10.95;;;;;;;;;;5094689;28;20048;-74
2023/07/23 07:17:52;;;;;;;15.25;11.15;;;;;;;;;;5060720;28;20055;-74
2023/07/23 07:20:18;;;;;;;15.75;11.15;;;;;;;;;;5077199;28;20040;-74
2023/07/23 07:22:44;;;;;;;15.25;10.77;;;;;;;;;;5095709;28;20051;-74
2023/07/23 07:25:11;;;;;;;16.63;11.13;;;;;;;;;;5077057;28;20047;-74
2023/07/23 07:27:37;;;;;;;15.95;11.00;;;;;;;;;;5094882;28;20485;-73
2023/07/23 07:30:03;;;;;;;17.73;11.57;;;;;;;;;;5076599;28;20059;-74
2023/07/23 07:32:29;;;;;;;18.67;10.82;;;;;;;;;;5095305;28;20127;-74
2023/07/23 07:34:55;;;;;;;16.60;11.88;;;;;;;;;;5094464;28;20082;-73
2023/07/23 07:37:22;;;;;;;17.60;11.35;;;;;;;;;;5094424;28;20043;-74
2023/07/23 07:39:48;;;;;;;17.42;11.43;;;;;;;;;;5094592;28;20089;-73
2023/07/23 07:42:14;;;;;;;17.70;11.60;;;;;;;;;;5104730;28;20040;-73
2023/07/23 07:44:44;;;;;;;16.33;11.18;;;;;;;;;;5113813;28;20164;-73
2023/07/23 07:47:10;;;;;;;18.40;11.48;;;;;;;;;;5097565;28;20051;-74
2023/07/23 07:49:36;;;;;;;16.83;11.18;;;;;;;;;;5076053;28;20097;-75
2023/07/23 07:52:02;;;;;;;19.77;10.93;;;;;;;;;;5076219;28;20040;-75
2023/07/23 07:54:29;;;;;;;19.98;11.77;;;;;;;;;;5076589;28;20134;-75
2023/07/23 07:56:55;;;;;;;16.67;11.85;;;;;;;;;;5094896;28;20463;-75
2023/07/23 07:59:21;;;;;;;16.60;10.98;;;;;;;;;;5076642;28;20048;-75
2023/07/23 08:01:48;;;;;;;18.30;10.63;;;;;;;;;;5094839;28;20105;-75
2023/07/23 08:04:14;;;;;;;22.40;11.63;;;;;;;;;;5093607;28;20043;-75
2023/07/23 08:06:40;;;;;;;17.85;10.90;;;;;;;;;;5094662;28;20047;-75
2023/07/23 08:09:08;;;;;;;15.88;10.70;;;;;;;;;;5094402;28;20040;-75
2023/07/23 08:11:35;;;;;;;16.75;11.30;;;;;;;;;;5094413;28;20055;-75
2023/07/23 08:14:03;;;;;;;17.55;11.13;;;;;;;;;;5094168;28;20408;-74
2023/07/23 08:16:30;;;;;;;17.33;11.35;;;;;;;;;;5094264;28;20129;-74
2023/07/23 08:18:56;;;;;;;17.80;10.88;;;;;;;;;;5093750;28;20356;-75
2023/07/23 08:21:22;;;;;;;21.95;11.07;;;;;;;;;;5076165;28;20044;-74
2023/07/23 08:23:49;;;;;;;14.45;10.27;;;;;;;;;;5093703;28;20119;-74
2023/07/23 08:26:18;;;;;;;17.23;10.43;;;;;;;;;;5094048;28;20060;-75
2023/07/23 08:28:51;;;;;;;18.83;10.40;;;;;;;;;;5094159;28;20102;-75
2023/07/23 08:31:18;;;;;;;18.90;10.65;;;;;;;;;;5094120;28;20047;-74
2023/07/23 08:33:46;;;;;;;19.00;11.05;;;;;;;;;;5093711;28;20138;-74
2023/07/23 08:36:12;;;;;;;15.85;11.20;;;;;;;;;;5092832;28;20075;-74
2023/07/23 08:38:39;;;;;;;16.17;11.57;;;;;;;;;;5093950;28;20044;-73
2023/07/23 08:41:08;;;;;;;14.55;11.27;;;;;;;;;;5093914;28;20044;-74
2023/07/23 08:44:09;;;;;;;14.25;11.45;;;;;;;;;;5093792;28;20117;-74
2023/07/23 08:46:41;;;;;;;12.93;11.18;;;;;;;;;;5091107;28;20048;-83
2023/07/23 08:49:09;;;;;;;16.63;11.85;;;;;;;;;;5090570;28;20084;-82
2023/07/23 08:51:40;;;;;;;14.73;11.70;;;;;;;;;;5073805;28;20378;-82
2023/07/23 08:54:07;;;;;;;14.05;11.13;;;;;;;;;;5091358;28;20123;-82
2023/07/23 08:56:34;;;;;;;14.77;10.88;;;;;;;;;;5092033;28;20405;-83
2023/07/23 08:59:04;;;;;;;15.23;11.10;;;;;;;;;;5092317;28;20052;-83
2023/07/23 09:01:40;;;;;;;15.73;11.50;;;;;;;;;;5057601;28;20499;-83
2023/07/23 09:04:08;;;;;;;15.05;10.45;;;;;;;;;;5092236;28;20113;-83
2023/07/23 09:06:35;;;;;;;12.43;10.27;;;;;;;;;;5072497;28;20526;-83
2023/07/23 09:09:06;;;;;;;16.42;10.90;;;;;;;;;;5073801;28;20043;-83
2023/07/23 09:11:32;;;;;;;14.27;10.90;;;;;;;;;;5074163;28;20105;-83
2023/07/23 09:13:59;;;;;;;15.18;10.13;;;;;;;;;;5092028;28;20072;-82
2023/07/23 09:16:26;;;;;;;15.85;10.85;;;;;;;;;;5073195;28;20086;-83
2023/07/23 09:18:52;;;;;;;13.95;10.95;;;;;;;;;;5070430;28;20071;-83
2023/07/23 09:21:25;;;;;;;14.57;11.25;;;;;;;;;;5054429;28;20055;-84
2023/07/23 09:23:52;;;;;;;14.85;11.18;;;;;;;;;;5060504;28;20051;-84
2023/07/23 09:26:23;;;;;;;14.52;10.80;;;;;;;;;;5058235;28;20036;-84
2023/07/23 09:28:51;;;;;;;15.70;11.13;;;;;;;;;;5096522;28;20048;-74
2023/07/23 09:31:22;;;;;;;15.65;10.85;;;;;;;;;;5100354;28;20089;-75
2023/07/23 09:33:48;;;;;;;13.38;10.68;;;;;;;;;;5094139;28;20130;-74
2023/07/23 09:36:15;;;;;;;12.52;10.10;;;;;;;;;;5092979;28;20040;-75
2023/07/23 09:38:45;;;;;;;16.50;10.48;;;;;;;;;;5092498;28;20040;-75
2023/07/23 09:41:12;;;;;;;13.98;9.98;;;;;;;;;;5096480;28;20132;-74
2023/07/23 09:43:39;;;;;;;12.60;10.07;;;;;;;;;;5113056;28;20491;-76
2023/07/23 09:46:05;;;;;;;14.82;10.35;;;;;;;;;;5113240;28;20480;-75
2023/07/23 09:48:32;;;;;;;13.35;9.82;;;;;;;;;;5092829;28;20135;-75
2023/07/23 09:50:58;;;;;;;11.95;9.35;;;;;;;;;;5092870;28;20078;-75
2023/07/23 09:53:24;;;;;;;15.40;9.05;;;;;;;;;;5092326;28;20122;-75
2023/07/23 09:55:51;;;;;;;11.98;9.40;;;;;;;;;;5087756;28;20610;-75
2023/07/23 09:58:17;;;;;;;15.02;10.50;;;;;;;;;;5090230;28;20032;-75
2023/07/23 10:00:44;;;;;;;14.63;10.40;;;;;;;;;;5092662;28;20458;-75
2023/07/23 10:03:16;;;;;;;13.00;10.15;;;;;;;;;;5092323;28;20044;-75
2023/07/23 10:05:43;;;;;;;13.05;9.93;;;;;;;;;;5091858;28;20048;-75
2023/07/23 10:08:10;;;;;;;14.68;10.10;;;;;;;;;;5073674;28;20044;-75
2023/07/23 10:10:36;;;;;;;15.55;11.05;;;;;;;;;;5092037;28;20040;-74
2023/07/23 10:13:02;;;;;;;15.05;10.63;;;;;;;;;;5092898;28;20123;-76
2023/07/23 10:15:29;;;;;;;13.15;9.88;;;;;;;;;;5092193;28;20083;-75
2023/07/23 10:18:00;;;;;;;14.77;9.68;;;;;;;;;;5070230;28;20097;-76
2023/07/23 10:20:28;;;;;;;12.68;9.93;;;;;;;;;;5076368;28;20400;-76
2023/07/23 10:22:54;;;;;;;14.02;10.75;;;;;;;;;;5091718;28;20119;-76
2023/07/23 10:25:24;;;;;;;15.57;10.15;;;;;;;;;;5090855;28;20156;-76
2023/07/23 10:28:00;;;;;;;12.00;9.98;;;;;;;;;;5089513;28;20040;-77
2023/07/23 10:30:27;;;;;;;12.38;9.55;;;;;;;;;;5088658;28;20087;-78
2023/07/23 10:33:11;;;;;;;14.88;9.90;;;;;;;;;;5089279;28;20494;-77
2023/07/23 10:35:49;;;;;;;14.32;10.20;;;;;;;;;;5089158;28;20096;-78
2023/07/23 10:38:23;;;;;;;13.25;9.98;;;;;;;;;;5089421;28;20106;-77
2023/07/23 10:40:49;;;;;;;16.08;10.13;;;;;;;;;;5089268;28;20139;-77
2023/07/23 10:43:16;;;;;;;13.68;9.95;;;;;;;;;;5087583;28;20439;-79
2023/07/23 10:45:45;;;;;;;12.85;9.55;;;;;;;;;;5097271;28;20459;-80
2023/07/23 10:48:17;;;;;;;15.88;9.82;;;;;;;;;;5076549;28;20101;-76
2023/07/23 10:51:00;;;;;;;13.27;9.35;;;;;;;;;;5091500;28;20063;-75
2023/07/23 10:53:27;;;;;;;12.57;9.50;;;;;;;;;;5091370;28;20200;-75
2023/07/23 10:55:53;;;;;;;12.90;9.20;;;;;;;;;;5089823;28;20115;-75
2023/07/23 10:58:22;;;;;;;13.48;9.75;;;;;;;;;;5089904;28;20096;-75
2023/07/23 11:00:53;;;;;;;14.85;9.30;;;;;;;;;;5104380;28;20135;-75
2023/07/23 11:03:20;;;;;;;12.40;8.73;;;;;;;;;;5091301;28;20044;-74
2023/07/23 11:05:46;;;;;;;13.90;9.10;;;;;;;;;;5073433;28;20177;-75
2023/07/23 11:08:26;;;;;;;12.68;8.90;;;;;;;;;;5073548;28;20116;-74
2023/07/23 11:10:52;;;;;;;13.65;9.55;;;;;;;;;;5075204;28;20048;-74
2023/07/23 11:13:20;;;;;;;10.75;8.63;;;;;;;;;;5094114;28;20094;-75
2023/07/23 11:15:47;;;;;;;12.35;8.90;;;;;;;;;;5095428;28;20123;-75
2023/07/23 11:18:13;;;;;;;12.95;9.07;;;;;;;;;;5087988;28;20055;-76
2023/07/23 11:20:46;;;;;;;13.50;9.23;;;;;;;;;;5056683;28;20389;-74
2023/07/23 11:23:12;;;;;;;14.25;8.85;;;;;;;;;;5075084;28;20040;-74
2023/07/23 11:25:39;;;;;;;13.45;9.43;;;;;;;;;;5089409;28;20123;-74
2023/07/23 11:28:07;;;;;;;11.23;8.82;;;;;;;;;;5093946;28;20044;-74
2023/07/23 11:30:33;;;;;;;15.10;9.18;;;;;;;;;;5095526;28;20120;-74
2023/07/23 11:32:59;;;;;;;15.45;9.52;;;;;;;;;;5095405;28;20433;-74
2023/07/23 11:35:26;;;;;;;13.90;9.63;;;;;;;;;;5076570;28;20495;-74
2023/07/23 11:37:52;;;;;;;14.00;10.13;;;;;;;;;;5095363;28;20076;-74
2023/07/23 11:40:21;;;;;;;13.25;9.55;;;;;;;;;;5076703;28;20062;-75
2023/07/23 11:42:48;;;;;;;13.57;9.43;;;;;;;;;;5077004;28;20052;-74
2023/07/23 11:45:14;;;;;;;12.43;9.38;;;;;;;;;;5094748;28;20392;-74
2023/07/23 11:47:53;;;;;;;15.95;10.10;;;;;;;;;;5089737;28;20124;-74
2023/07/23 11:50:23;;;;;;;14.75;9.50;;;;;;;;;;5074474;28;20454;-74
2023/07/23 11:52:50;;;;;;;11.98;9.10;;;;;;;;;;5074736;28;20040;-74
2023/07/23 11:55:20;;;;;;;14.15;9.55;;;;;;;;;;5074190;28;20079;-74
2023/07/23 11:57:50;;;;;;;15.15;9.25;;;;;;;;;;5056632;28;20048;-75
2023/07/23 12:00:23;;;;;;;12.82;8.80;;;;;;;;;;5074562;28;20410;-75
2023/07/23 12:02:49;;;;;;;13.80;9.45;;;;;;;;;;5074572;28;20112;-76
2023/07/23 12:05:15;;;;;;;12.93;9.23;;;;;;;;;;5074103;28;20052;-75
2023/07/23 12:07:42;;;;;;;12.70;9.15;;;;;;;;;;5074227;28;20109;-75
2023/07/23 12:10:08;;;;;;;12.45;9.15;;;;;;;;;;5074102;28;20036;-74
2023/07/23 12:12:34;;;;;;;11.02;9.18;;;;;;;;;;5074250;28;20051;-74
2023/07/23 12:15:01;;;;;;;14.80;9.52;;;;;;;;;;5071690;28;20399;-75
2023/07/23 12:17:28;;;;;;;11.80;9.15;;;;;;;;;;5073632;28;20085;-74
2023/07/23 12:19:54;;;;;;;11.48;8.10;;;;;;;;;;5073658;28;20045;-75
2023/07/23 12:22:20;;;;;;;12.93;8.65;;;;;;;;;;5074165;28;20084;-73
2023/07/23 12:24:46;;;;;;;13.52;8.95;;;;;;;;;;5073992;28;20044;-74
2023/07/23 12:27:12;;;;;;;12.90;8.13;;;;;;;;;;5056179;28;20086;-76
2023/07/23 12:29:42;;;;;;;11.70;8.35;;;;;;;;;;5056000;28;20052;-74
2023/07/23 12:32:10;;;;;;;11.63;7.82;;;;;;;;;;5073685;28;20055;-75
2023/07/23 12:34:36;;;;;;;11.07;8.02;;;;;;;;;;5073509;28;20429;-74
2023/07/23 12:37:03;;;;;;;9.45;7.50;;;;;;;;;;5073626;28;20094;-75
2023/07/23 12:39:29;;;;;;;11.55;7.68;;;;;;;;;;5073516;28;20045;-75
2023/07/23 12:41:55;;;;;;;11.05;7.45;;;;;;;;;;5074316;28;20440;-75
2023/07/23 12:44:21;;;;;;;13.00;7.63;;;;;;;;;;5055495;28;20048;-74
2023/07/23 12:46:48;;;;;;;10.48;7.25;;;;;;;;;;5076592;28;20082;-73
2023/07/23 12:49:14;;;;;;;9.45;6.88;;;;;;;;;;5097814;28;20099;-73
2023/07/23 12:51:41;;;;;;;10.30;6.97;;;;;;;;;;5095392;28;20365;-74
2023/07/23 12:54:07;;;;;;;9.57;6.40;;;;;;;;;;5075921;28;20044;-75
2023/07/23 12:56:34;;;;;;;10.60;6.47;;;;;;;;;;5093679;28;20097;-74
2023/07/23 12:59:00;;;;;;;10.25;6.40;;;;;;;;;;5093176;28;20055;-74
2023/07/23 13:01:26;;;;;;;9.63;5.90;;;;;;;;;;5074942;28;20043;-75
2023/07/23 13:03:56;;;;;;;9.82;6.63;;;;;;;;;;5075309;28;20054;-74
2023/07/23 13:06:23;;;;;;;7.78;6.10;;;;;;;;;;5093551;28;20054;-75
2023/07/23 13:08:49;;;;;;;9.25;6.00;;;;;;;;;;5093102;28;20063;-75
2023/07/23 13:11:15;;;;;;;8.52;6.35;;;;;;;;;;5093692;28;20067;-75
2023/07/23 13:13:42;;;;;;;10.20;6.10;;;;;;;;;;5075153;28;20365;-75
2023/07/23 13:16:08;;;;;;;8.18;6.00;;;;;;;;;;5093073;28;20044;-76
2023/07/23 13:18:35;;;;;;;9.32;7.20;;;;;;;;;;5066067;28;20516;-75
2023/07/23 13:21:03;;;;;;;9.48;7.40;;;;;;;;;;5072873;28;20489;-75
2023/07/23 13:23:29;;;;;;;9.68;7.43;;;;;;;;;;5054645;28;20056;-76
2023/07/23 13:25:55;;;;;;;10.07;8.18;;;;;;;;;;5072642;28;20048;-75
2023/07/23 13:28:21;;;;;;;10.80;8.93;;;;;;;;;;5072855;28;20040;-75
2023/07/23 13:30:49;;;;;;;12.23;9.15;;;;;;;;;;5054294;28;20051;-75
2023/07/23 13:33:16;;;;;;;11.80;9.48;;;;;;;;;;5071085;28;20096;-74
2023/07/23 13:35:42;;;;;;;12.10;9.70;;;;;;;;;;5072848;28;20040;-75
2023/07/23 13:38:09;;;;;;;11.80;10.15;;;;;;;;;;5072486;28;20056;-75
2023/07/23 13:40:36;;;;;;;14.30;10.02;;;;;;;;;;5071528;28;20044;-75
2023/07/23 13:43:02;;;;;;;12.35;10.07;;;;;;;;;;5072815;28;20049;-75
2023/07/23 13:45:28;;;;;;;13.52;10.30;;;;;;;;;;5072310;28;20503;-75
2023/07/23 13:47:54;;;;;;;10.82;8.93;;;;;;;;;;5079065;28;20059;-75
2023/07/23 13:50:21;;;;;;;11.50;9.20;;;;;;;;;;5092657;28;20032;-76
2023/07/23 13:52:47;;;;;;;11.80;9.40;;;;;;;;;;5092768;28;20048;-76
2023/07/23 13:55:13;;;;;;;11.40;8.98;;;;;;;;;;5074577;28;20097;-76
2023/07/23 13:57:39;;;;;;;12.20;8.73;;;;;;;;;;5092741;28;20126;-76
2023/07/23 14:00:06;;;;;;;11.30;8.80;;;;;;;;;;5074479;28;20048;-75
2023/07/23 14:02:32;;;;;;;10.27;8.57;;;;;;;;;;5092771;28;20365;-75
2023/07/23 14:04:58;;;;;;;11.55;8.20;;;;;;;;;;5092303;28;20047;-75
2023/07/23 14:07:25;;;;;;;11.45;7.97;;;;;;;;;;5072559;28;20083;-75
2023/07/23 14:09:51;;;;;;;9.77;7.43;;;;;;;;;;5074193;28;20047;-75
2023/07/23 14:12:17;;;;;;;11.40;8.38;;;;;;;;;;5074241;28;20134;-75
2023/07/23 14:14:43;;;;;;;9.85;7.28;;;;;;;;;;5057567;28;20047;-76
2023/07/23 14:17:10;;;;;;;9.35;7.47;;;;;;;;;;5074213;28;20433;-76
2023/07/23 14:19:36;;;;;;;9.32;7.32;;;;;;;;;;5074534;28;20071;-76
2023/07/23 14:22:02;;;;;;;11.07;7.25;;;;;;;;;;5072185;28;20040;-76
2023/07/23 14:24:28;;;;;;;9.77;6.80;;;;;;;;;;5071920;28;20144;-76